Aromas, California
Current Conditions -  °F | °C
As of 4:53 AM on Friday 31 Oct 2014 (Local Time) from KWVI Reporting Station
Overcast Overcast  
Wind Chill: 63°   Ceiling: 4000
Heat Index: 63°   Visibility: 10mi
Dew Point: 58°   Wind: 0mph
Humidity: 84%   Direction: NA
Pressure: 29.9"   Gusts: NA
Location:  36.88°N, 121.64°W
Report Text: KWVI 311153Z AUTO 00000KT 10SM OVC040 17/14 A2990 RMK AO2 SLP124 T01720144 10172 20167 57012
Loading
Personal Weather Stations






























Interactive Weather Map New forecast layout! Learn more

10-Day Weather Forecast

Advertisements
Track Severe Weather on mobile